Map

Track Data

SID SEASON NUMBER BASIN SUBBASIN NAME ISO_TIME NATURE LAT LON WMO_WIND WMO_PRES WMO_AGENCY TRACK_TYPE DIST2LAND LANDFALL IFLAG USA_AGENCY USA_ATCF_ID USA_LAT USA_LON USA_RECORD USA_STATUS USA_WIND USA_PRES USA_SSHS USA_R34_NE USA_R34_SE USA_R34_SW USA_R34_NW USA_R50_NE USA_R50_SE USA_R50_SW USA_R50_NW USA_R64_NE USA_R64_SE USA_R64_SW USA_R64_NW USA_POCI USA_ROCI USA_RMW USA_EYE TOKYO_LAT TOKYO_LON TOKYO_GRADE TOKYO_WIND TOKYO_PRES TOKYO_R50_DIR TOKYO_R50_LONG TOKYO_R50_SHORT TOKYO_R30_DIR TOKYO_R30_LONG TOKYO_R30_SHORT TOKYO_LAND CMA_LAT CMA_LON CMA_CAT CMA_WIND CMA_PRES HKO_LAT HKO_LON HKO_CAT HKO_WIND HKO_PRES NEWDELHI_LAT NEWDELHI_LON NEWDELHI_GRADE NEWDELHI_WIND NEWDELHI_PRES NEWDELHI_CI NEWDELHI_DP NEWDELHI_POCI REUNION_LAT REUNION_LON REUNION_TYPE REUNION_WIND REUNION_PRES REUNION_TNUM REUNION_CI REUNION_RMW REUNION_R34_NE REUNION_R34_SE REUNION_R34_SW REUNION_R34_NW REUNION_R50_NE REUNION_R50_SE REUNION_R50_SW REUNION_R50_NW REUNION_R64_NE REUNION_R64_SE REUNION_R64_SW REUNION_R64_NW BOM_LAT BOM_LON BOM_TYPE BOM_WIND BOM_PRES BOM_TNUM BOM_CI BOM_RMW BOM_R34_NE BOM_R34_SE BOM_R34_SW BOM_R34_NW BOM_R50_NE BOM_R50_SE BOM_R50_SW BOM_R50_NW BOM_R64_NE BOM_R64_SE BOM_R64_SW BOM_R64_NW BOM_ROCI BOM_POCI BOM_EYE BOM_POS_METHOD BOM_PRES_METHOD NADI_LAT NADI_LON NADI_CAT NADI_WIND NADI_PRES WELLINGTON_LAT WELLINGTON_LON WELLINGTON_WIND WELLINGTON_PRES DS824_LAT DS824_LON DS824_STAGE DS824_WIND DS824_PRES TD9636_LAT TD9636_LON TD9636_STAGE TD9636_WIND TD9636_PRES TD9635_LAT TD9635_LON TD9635_WIND TD9635_PRES TD9635_ROCI NEUMANN_LAT NEUMANN_LON NEUMANN_CLASS NEUMANN_WIND NEUMANN_PRES MLC_LAT MLC_LON MLC_CLASS MLC_WIND MLC_PRES USA_GUST BOM_GUST BOM_GUST_PER REUNION_GUST REUNION_GUST_PER USA_SEAHGT USA_SEARAD_NE USA_SEARAD_SE USA_SEARAD_SW USA_SEARAD_NW STORM_SPEED STORM_DIR
1964234N13316 1964 65 NA NA CLEO 1964-08-20 18:00:00 TS 13.1000 -44.3000 40 1003 hurdat_atl main 1250 1189 O_____________ hurdat_atl AL051964 13.1000 -44.3000 TS 40 1003 0 23 274
1964234N13316 1964 65 NA NA CLEO 1964-08-20 21:00:00 TS 13.1811 -45.4976 main 1183 1121 P_____________ AL051964 13.1811 -45.4976 TS 40 0 23 275
1964234N13316 1964 65 NA NA CLEO 1964-08-21 00:00:00 TS 13.3000 -46.7000 40 hurdat_atl main 1114 1068 O_____________ hurdat_atl AL051964 13.3000 -46.7000 TS 40 0 24 277
1964234N13316 1964 65 NA NA CLEO 1964-08-21 03:00:00 TS 13.4845 -47.9074 main 1063 1028 P_____________ AL051964 13.4845 -47.9074 TS 42 0 24 280
1964234N13316 1964 65 NA NA CLEO 1964-08-21 06:00:00 TS 13.7000 -49.1000 45 hurdat_atl main 1024 997 O_____________ hurdat_atl AL051964 13.7000 -49.1000 TS 45 0 23 280
1964234N13316 1964 65 NA NA CLEO 1964-08-21 09:00:00 TS 13.8996 -50.2726 main 992 968 P_____________ AL051964 13.8996 -50.2726 TS 50 0 23 280
1964234N13316 1964 65 NA NA CLEO 1964-08-21 12:00:00 TS 14.1000 -51.4000 55 1000 hurdat_atl main 968 955 O_____________ hurdat_atl AL051964 14.1000 -51.4000 TS 55 1000 0 22 281
1964234N13316 1964 65 NA NA CLEO 1964-08-21 15:00:00 TS 14.2992 -52.4577 main 959 928 P_____________ AL051964 14.2992 -52.4577 TS 60 996 0 21 281
1964234N13316 1964 65 NA NA CLEO 1964-08-21 18:00:00 TS 14.5000 -53.5000 65 993 hurdat_atl main 918 835 O_____________ hurdat_atl AL051964 14.5000 -53.5000 HU 65 993 1 21 281
1964234N13316 1964 65 NA NA CLEO 1964-08-21 21:00:00 TS 14.6998 -54.6076 main 826 751 P_____________ AL051964 14.6998 -54.6076 HU 70 1 22 281
1964234N13316 1964 65 NA NA CLEO 1964-08-22 00:00:00 TS 14.9000 -55.7000 75 hurdat_atl main 742 678 O_____________ hurdat_atl AL051964 14.9000 -55.7000 HU 75 1 21 281
1964234N13316 1964 65 NA NA CLEO 1964-08-22 03:00:00 TS 15.0994 -56.7152 main 678 633 P_____________ AL051964 15.0994 -56.7152 HU 80 1 20 282
1964234N13316 1964 65 NA NA CLEO 1964-08-22 06:00:00 TS 15.3000 -57.7000 85 hurdat_atl main 627 592 O_____________ hurdat_atl AL051964 15.3000 -57.7000 HU 85 2 20 282
1964234N13316 1964 65 NA NA CLEO 1964-08-22 09:00:00 TS 15.5128 -58.7066 main 592 575 P_____________ AL051964 15.5128 -58.7066 HU 92 2 20 282
1964234N13316 1964 65 NA NA CLEO 1964-08-22 12:00:00 TS 15.7000 -59.7000 100 970 hurdat_atl main 577 564 O_____________ hurdat_atl AL051964 15.7000 -59.7000 HU 100 970 3 19 278
1964234N13316 1964 65 NA CS CLEO 1964-08-22 15:00:00 TS 15.7833 -60.6774 main 571 524 P_____________ AL051964 15.7833 -60.6774 HU 105 965 3 19 277
1964234N13316 1964 65 NA CS CLEO 1964-08-22 17:00:00 TS 15.9000 -61.3000 110 962 hurdat_atl main 524 491 O_____________ hurdat_atl AL051964 15.9000 -61.3000 L HU 110 962 3 18 284
1964234N13316 1964 65 NA CS CLEO 1964-08-22 18:00:00 TS 16.0000 -61.6000 110 962 hurdat_atl main 491 398 O_____________ hurdat_atl AL051964 16.0000 -61.6000 L HU 110 962 3 18 283
1964234N13316 1964 65 NA CS CLEO 1964-08-22 21:00:00 TS 16.1599 -62.5123 main 398 323 P_____________ AL051964 16.1599 -62.5123 HU 115 4 17 277
1964234N13316 1964 65 NA CS CLEO 1964-08-23 00:00:00 TS 16.2000 -63.4000 120 hurdat_atl main 323 263 O_____________ hurdat_atl AL051964 16.2000 -63.4000 HU 120 4 16 273
1964234N13316 1964 65 NA CS CLEO 1964-08-23 03:00:00 TS 16.2495 -64.2152 main 263 208 P_____________ AL051964 16.2495 -64.2152 HU 122 4 15 274
1964234N13316 1964 65 NA CS CLEO 1964-08-23 06:00:00 TS 16.3000 -65.0000 125 hurdat_atl main 208 173 O_____________ hurdat_atl AL051964 16.3000 -65.0000 HU 125 4 15 275
1964234N13316 1964 65 NA CS CLEO 1964-08-23 09:00:00 TS 16.3924 -65.8150 main 173 157 P_____________ AL051964 16.3924 -65.8150 HU 127 4 15 277
1964234N13316 1964 65 NA CS CLEO 1964-08-23 12:00:00 TS 16.5000 -66.6000 130 938 hurdat_atl main 159 145 O_____________ hurdat_atl AL051964 16.5000 -66.6000 HU 130 938 4 15 278
1964234N13316 1964 65 NA CS CLEO 1964-08-23 15:00:00 TS 16.6071 -67.3150 main 145 140 P_____________ AL051964 16.6071 -67.3150 HU 127 941 4 14 278
1964234N13316 1964 65 NA CS CLEO 1964-08-23 18:00:00 TS 16.7000 -68.0000 125 945 hurdat_atl main 158 158 O_____________ hurdat_atl AL051964 16.7000 -68.0000 HU 125 945 4 14 276
1964234N13316 1964 65 NA CS CLEO 1964-08-23 21:00:00 TS 16.7499 -68.7152 main 167 156 P_____________ AL051964 16.7499 -68.7152 HU 125 4 13 274
1964234N13316 1964 65 NA CS CLEO 1964-08-24 00:00:00 TS 16.8000 -69.4000 125 hurdat_atl main 169 147 O_____________ hurdat_atl AL051964 16.8000 -69.4000 HU 125 4 12 276
1964234N13316 1964 65 NA CS CLEO 1964-08-24 03:00:00 TS 16.8846 -70.0076 main 147 108 P_____________ AL051964 16.8846 -70.0076 HU 125 4 12 280
1964234N13316 1964 65 NA CS CLEO 1964-08-24 06:00:00 TS 17.0000 -70.6000 125 hurdat_atl main 108 59 O_____________ hurdat_atl AL051964 17.0000 -70.6000 HU 125 4 12 281
1964234N13316 1964 65 NA CS CLEO 1964-08-24 09:00:00 TS 17.1124 -71.2428 main 59 44 P_____________ AL051964 17.1124 -71.2428 HU 127 4 13 284
1964234N13316 1964 65 NA CS CLEO 1964-08-24 12:00:00 TS 17.3000 -71.9000 130 hurdat_atl main 62 61 O_____________ hurdat_atl AL051964 17.3000 -71.9000 HU 130 4 13 293
1964234N13316 1964 65 NA CS CLEO 1964-08-24 15:00:00 TS 17.6355 -72.5266 main 64 22 P_____________ AL051964 17.6355 -72.5266 HU 130 4 14 299
1964234N13316 1964 65 NA CS CLEO 1964-08-24 18:00:00 TS 18.0000 -73.2000 130 hurdat_atl main 22 0 O_____________ hurdat_atl AL051964 18.0000 -73.2000 HU 130 4 15 297
1964234N13316 1964 65 NA CS CLEO 1964-08-24 20:00:00 TS 18.2000 -73.7000 130 hurdat_atl main 0 0 O_____________ hurdat_atl AL051964 18.2000 -73.7000 L HU 130 4 15 294
1964234N13316 1964 65 NA NA CLEO 1964-08-24 21:00:00 TS 18.3034 -73.9043 main 0 0 P_____________ AL051964 18.3034 -73.9043 HU 121 4 12 301
1964234N13316 1964 65 NA CS CLEO 1964-08-25 00:00:00 TS 18.6000 -74.4000 95 hurdat_atl main 0 0 O_____________ hurdat_atl AL051964 18.6000 -74.4000 HU 95 2 11 298
1964234N13316 1964 65 NA CS CLEO 1964-08-25 03:00:00 TS 18.8181 -74.9457 main 57 57 P_____________ AL051964 18.8181 -74.9457 HU 90 2 11 291
1964234N13316 1964 65 NA CS CLEO 1964-08-25 06:00:00 TS 19.0000 -75.5000 85 hurdat_atl main 100 88 O_____________ hurdat_atl AL051964 19.0000 -75.5000 HU 85 2 11 289
1964234N13316 1964 65 NA CS CLEO 1964-08-25 09:00:00 TS 19.1835 -76.0617 main 89 67 P_____________ AL051964 19.1835 -76.0617 HU 80 1 11 291
1964234N13316 1964 65 NA CS CLEO 1964-08-25 12:00:00 TS 19.4000 -76.6000 75 hurdat_atl main 67 22 O_____________ hurdat_atl AL051964 19.4000 -76.6000 HU 75 1 11 298
1964234N13316 1964 65 NA CS CLEO 1964-08-25 15:00:00 TS 19.6925 -77.0569 main 22 0 P_____________ AL051964 19.6925 -77.0569 HU 72 1 11 304
1964234N13316 1964 65 NA CS CLEO 1964-08-25 17:00:00 TS 19.9000 -77.4000 70 hurdat_atl main 0 0 O_____________ hurdat_atl AL051964 19.9000 -77.4000 L HU 70 1 12 301
1964234N13316 1964 65 NA NA CLEO 1964-08-25 18:00:00 TS 20.0000 -77.6000 70 hurdat_atl main 0 0 O_____________ hurdat_atl AL051964 20.0000 -77.6000 HU 70 1 12 307
1964234N13316 1964 65 NA CS CLEO 1964-08-25 21:00:00 TS 20.3789 -78.0720 main 35 15 P_____________ AL051964 20.3789 -78.0720 HU 70 1 11 317
1964234N13316 1964 65 NA CS CLEO 1964-08-26 00:00:00 TS 20.8000 -78.4000 70 hurdat_atl main 15 0 O_____________ hurdat_atl AL051964 20.8000 -78.4000 HU 70 1 10 325
1964234N13316 1964 65 NA CS CLEO 1964-08-26 03:00:00 TS 21.1694 -78.6547 main 20 10 P_____________ AL051964 21.1694 -78.6547 HU 70 1 8 326
1964234N13316 1964 65 NA CS CLEO 1964-08-26 06:00:00 TS 21.5000 -78.9000 70 hurdat_atl main 10 0 O_____________ hurdat_atl AL051964 21.5000 -78.9000 HU 70 1 8 323
1964234N13316 1964 65 NA CS CLEO 1964-08-26 07:00:00 TS 21.6000 -79.0000 70 hurdat_atl main 0 0 O_____________ hurdat_atl AL051964 21.6000 -79.0000 L HU 70 1 8 331
1964234N13316 1964 65 NA NA CLEO 1964-08-26 09:00:00 TS 21.8649 -79.1168 main 0 0 P_____________ AL051964 21.8649 -79.1168 HU 65 1 10 347
1964234N13316 1964 65 NA NA CLEO 1964-08-26 12:00:00 TS 22.4000 -79.2000 60 hurdat_atl main 11 11 O_____________ hurdat_atl AL051964 22.4000 -79.2000 TS 60 0 12 347
1964234N13316 1964 65 NA NA CLEO 1964-08-26 15:00:00 TS 23.0514 -79.4083 main 49 49 P_____________ AL051964 23.0514 -79.4083 TS 65 1 14 344
1964234N13316 1964 65 NA NA CLEO 1964-08-26 18:00:00 TS 23.7000 -79.6000 70 990 hurdat_atl main 98 98 O_____________ hurdat_atl AL051964 23.7000 -79.6000 HU 70 990 1 12 349
1964234N13316 1964 65 NA NA CLEO 1964-08-26 21:00:00 TS 24.1799 -79.6580 main 122 90 P_____________ AL051964 24.1799 -79.6580 HU 75 987 1 9 355
1964234N13316 1964 65 NA NA CLEO 1964-08-27 00:00:00 TS 24.6000 -79.7000 80 984 hurdat_atl main 90 61 O_____________ hurdat_atl AL051964 24.6000 -79.7000 HU 80 984 1 9 349
1964234N13316 1964 65 NA NA CLEO 1964-08-27 03:00:00 TS 25.0500 -79.8370 main 60 30 P_____________ AL051964 25.0500 -79.8370 HU 87 976 2 9 343
1964234N13316 1964 65 NA NA CLEO 1964-08-27 06:00:00 TS 25.5000 -80.0000 95 968 hurdat_atl main 30 0 O_____________ hurdat_atl AL051964 25.5000 -80.0000 HU 95 968 2 9 343
1964234N13316 1964 65 NA NA CLEO 1964-08-27 08:00:00 TS 25.8000 -80.1000 95 968 hurdat_atl main 0 0 O_____________ hurdat_atl AL051964 25.8000 -80.1000 L HU 95 968 2 9 345
1964234N13316 1964 65 NA NA CLEO 1964-08-27 09:00:00 TS 25.9324 -80.1325 main 0 0 P_____________ AL051964 25.9324 -80.1325 HU 91 968 2 8 350
1964234N13316 1964 65 NA NA CLEO 1964-08-27 12:00:00 TS 26.3000 -80.2000 80 971 hurdat_atl main 0 0 O_____________ hurdat_atl AL051964 26.3000 -80.2000 HU 80 971 1 8 347
1964234N13316 1964 65 NA NA CLEO 1964-08-27 15:00:00 TS 26.7505 -80.3432 main 0 0 P_____________ AL051964 26.7505 -80.3432 HU 67 974 1 9 343
1964234N13316 1964 65 NA NA CLEO 1964-08-27 18:00:00 TS 27.2000 -80.5000 55 hurdat_atl main 0 0 I_____________ hurdat_atl AL051964 27.2000 -80.5000 TS 55 977 0 8 344
1964234N13316 1964 65 NA NA CLEO 1964-08-27 21:00:00 TS 27.5649 -80.6003 main 0 0 P_____________ AL051964 27.5649 -80.6003 TS 50 980 0 7 346
1964234N13316 1964 65 NA NA CLEO 1964-08-28 00:00:00 TS 27.9000 -80.7000 45 983 hurdat_atl main 0 0 O_____________ hurdat_atl AL051964 27.9000 -80.7000 TS 45 983 0 7 342
1964234N13316 1964 65 NA NA CLEO 1964-08-28 03:00:00 TS 28.2350 -80.8426 main 0 0 P_____________ AL051964 28.2350 -80.8426 TS 45 0 8 339
1964234N13316 1964 65 NA NA CLEO 1964-08-28 06:00:00 TS 28.6000 -81.0000 45 hurdat_atl main 0 0 O_____________ hurdat_atl AL051964 28.6000 -81.0000 TS 45 0 9 340
1964234N13316 1964 65 NA NA CLEO 1964-08-28 09:00:00 TS 29.0500 -81.1722 main 0 0 P_____________ AL051964 29.0500 -81.1722 TS 50 0 9 344
1964234N13316 1964 65 NA NA CLEO 1964-08-28 12:00:00 TS 29.5000 -81.3000 55 hurdat_atl main 0 0 O_____________ hurdat_atl AL051964 29.5000 -81.3000 TS 55 0 8 351
1964234N13316 1964 65 NA NA CLEO 1964-08-28 15:00:00 TS 29.8725 -81.3228 main 9 9 P_____________ AL051964 29.8725 -81.3228 TS 55 0 7 0
1964234N13316 1964 65 NA NA CLEO 1964-08-28 18:00:00 TS 30.2000 -81.3000 55 995 hurdat_atl main 14 14 O_____________ hurdat_atl AL051964 30.2000 -81.3000 TS 55 995 0 6 0
1964234N13316 1964 65 NA NA CLEO 1964-08-28 21:00:00 TS 30.5071 -81.3000 main 19 9 P_____________ AL051964 30.5071 -81.3000 TS 52 997 0 6 1
1964234N13316 1964 65 NA NA CLEO 1964-08-29 00:00:00 TS 30.8000 -81.3000 50 999 hurdat_atl main 9 9 O_____________ hurdat_atl AL051964 30.8000 -81.3000 TS 50 999 0 6 2
1964234N13316 1964 65 NA NA CLEO 1964-08-29 03:00:00 TS 31.1000 -81.3000 main 9 9 P_____________ AL051964 31.1000 -81.3000 TS 50 999 0 6 0
1964234N13316 1964 65 NA NA CLEO 1964-08-29 04:00:00 TS 31.2000 -81.3000 50 999 hurdat_atl main 9 0 O_____________ hurdat_atl AL051964 31.2000 -81.3000 L TS 50 999 0 6 0
1964234N13316 1964 65 NA NA CLEO 1964-08-29 06:00:00 TS 31.4000 -81.3000 50 999 hurdat_atl main 0 0 O_____________ hurdat_atl AL051964 31.4000 -81.3000 TS 50 999 0 6 0
1964234N13316 1964 65 NA NA CLEO 1964-08-29 09:00:00 TS 31.7129 -81.3319 main 0 0 P_____________ AL051964 31.7129 -81.3319 TS 47 999 0 6 352
1964234N13316 1964 65 NA NA CLEO 1964-08-29 12:00:00 TS 32.0000 -81.4000 45 1000 hurdat_atl main 0 0 O_____________ hurdat_atl AL051964 32.0000 -81.4000 TS 45 1000 0 5 345
1964234N13316 1964 65 NA NA CLEO 1964-08-29 15:00:00 TS 32.2075 -81.4851 main 0 0 P_____________ AL051964 32.2075 -81.4851 TS 42 0 4 337
1964234N13316 1964 65 NA NA CLEO 1964-08-29 18:00:00 TS 32.4000 -81.6000 40 hurdat_atl main 0 0 O_____________ hurdat_atl AL051964 32.4000 -81.6000 TS 40 0 5 333
1964234N13316 1964 65 NA NA CLEO 1964-08-29 21:00:00 TS 32.6425 -81.7499 main 0 0 P_____________ AL051964 32.6425 -81.7499 TS 40 0 6 333
1964234N13316 1964 65 NA NA CLEO 1964-08-30 00:00:00 TS 32.9000 -81.9000 40 hurdat_atl main 0 0 O_____________ hurdat_atl AL051964 32.9000 -81.9000 TS 40 0 6 335
1964234N13316 1964 65 NA NA CLEO 1964-08-30 03:00:00 TS 33.1425 -82.0299 main 0 0 P_____________ AL051964 33.1425 -82.0299 TS 37 0 5 341
1964234N13316 1964 65 NA NA CLEO 1964-08-30 06:00:00 TS 33.4000 -82.1000 35 1005 hurdat_atl main 0 0 O_____________ hurdat_atl AL051964 33.4000 -82.1000 TS 35 1005 0 6 354
1964234N13316 1964 65 NA NA CLEO 1964-08-30 09:00:00 TS 33.6924 -82.0949 main 0 0 P_____________ AL051964 33.6924 -82.0949 TS 32 -1 6 8
1964234N13316 1964 65 NA NA CLEO 1964-08-30 12:00:00 TS 34.0000 -82.0000 30 hurdat_atl main 0 0 O_____________ hurdat_atl AL051964 34.0000 -82.0000 TD 30 -1 7 20
1964234N13316 1964 65 NA NA CLEO 1964-08-30 15:00:00 TS 34.3075 -81.8301 main 0 0 P_____________ AL051964 34.3075 -81.8301 TD 27 -1 7 29
1964234N13316 1964 65 NA NA CLEO 1964-08-30 18:00:00 TS 34.6000 -81.6000 25 hurdat_atl main 0 0 O_____________ hurdat_atl AL051964 34.6000 -81.6000 TD 25 -1 7 34
1964234N13316 1964 65 NA NA CLEO 1964-08-30 21:00:00 TS 34.8573 -81.3796 main 0 0 P_____________ AL051964 34.8573 -81.3796 TD 25 -1 6 39
1964234N13316 1964 65 NA NA CLEO 1964-08-31 00:00:00 TS 35.1000 -81.1000 25 1007 hurdat_atl main 0 0 O_____________ hurdat_atl AL051964 35.1000 -81.1000 TD 25 1007 -1 7 47
1964234N13316 1964 65 NA NA CLEO 1964-08-31 03:00:00 TS 35.3576 -80.7226 main 0 0 P_____________ AL051964 35.3576 -80.7226 TD 25 1007 -1 8 53
1964234N13316 1964 65 NA NA CLEO 1964-08-31 06:00:00 TS 35.6000 -80.3000 25 1007 hurdat_atl main 0 0 O_____________ hurdat_atl AL051964 35.6000 -80.3000 TD 25 1007 -1 8 55
1964234N13316 1964 65 NA NA CLEO 1964-08-31 09:00:00 TS 35.8222 -79.9148 main 0 0 P_____________ AL051964 35.8222 -79.9148 TD 25 1007 -1 8 58
1964234N13316 1964 65 NA NA CLEO 1964-08-31 12:00:00 TS 36.0000 -79.5000 25 1007 hurdat_atl main 0 0 O_____________ hurdat_atl AL051964 36.0000 -79.5000 TD 25 1007 -1 8 67
1964234N13316 1964 65 NA NA CLEO 1964-08-31 15:00:00 TS 36.1224 -79.0223 main 0 0 P_____________ AL051964 36.1224 -79.0223 TD 27 1006 -1 8 76
1964234N13316 1964 65 NA NA CLEO 1964-08-31 18:00:00 TS 36.2000 -78.5000 30 hurdat_atl main 0 0 I_____________ hurdat_atl AL051964 36.2000 -78.5000 TD 30 1006 -1 9 81
1964234N13316 1964 65 NA NA CLEO 1964-08-31 21:00:00 TS 36.2649 -77.9500 main 0 0 P_____________ AL051964 36.2649 -77.9500 TD 30 1005 -1 9 84
1964234N13316 1964 65 NA NA CLEO 1964-09-01 00:00:00 TS 36.3000 -77.4000 30 1005 hurdat_atl main 0 0 O_____________ hurdat_atl AL051964 36.3000 -77.4000 TD 30 1005 -1 9 85
1964234N13316 1964 65 NA NA CLEO 1964-09-01 03:00:00 TS 36.3372 -76.8929 main 0 0 P_____________ AL051964 36.3372 -76.8929 TD 32 1003 -1 8 90
1964234N13316 1964 65 NA NA CLEO 1964-09-01 06:00:00 TS 36.3000 -76.4000 35 1001 hurdat_atl main 0 0 O_____________ hurdat_atl AL051964 36.3000 -76.4000 TS 35 1001 0 8 105
1964234N13316 1964 65 NA NA CLEO 1964-09-01 09:00:00 TS 36.1223 -75.8995 main 8 0 P_____________ AL051964 36.1223 -75.8995 TS 37 1000 0 9 116
1964234N13316 1964 65 NA NA CLEO 1964-09-01 12:00:00 TS 35.9000 -75.4000 40 999 hurdat_atl main 14 14 O_____________ hurdat_atl AL051964 35.9000 -75.4000 TS 40 999 0 9 115
1964234N13316 1964 65 NA NA CLEO 1964-09-01 15:00:00 TS 35.7423 -74.9003 main 55 55 P_____________ AL051964 35.7423 -74.9003 TS 42 998 0 9 110
1964234N13316 1964 65 NA NA CLEO 1964-09-01 18:00:00 TS 35.6000 -74.4000 45 hurdat_atl main 101 101 I_____________ hurdat_atl AL051964 35.6000 -74.4000 TS 45 998 0 9 111
1964234N13316 1964 65 NA NA CLEO 1964-09-01 21:00:00 TS 35.4347 -73.9074 main 151 151 P_____________ AL051964 35.4347 -73.9074 TS 50 997 0 9 110
1964234N13316 1964 65 NA NA CLEO 1964-09-02 00:00:00 TS 35.3000 -73.4000 55 997 hurdat_atl main 197 197 O_____________ hurdat_atl AL051964 35.3000 -73.4000 TS 55 997 0 9 105
1964234N13316 1964 65 NA NA CLEO 1964-09-02 03:00:00 TS 35.2046 -72.8722 main 244 244 P_____________ AL051964 35.2046 -72.8722 TS 60 992 0 9 96
1964234N13316 1964 65 NA NA CLEO 1964-09-02 06:00:00 TS 35.2000 -72.3000 65 hurdat_atl main 296 296 I_____________ hurdat_atl AL051964 35.2000 -72.3000 HU 65 988 1 10 83
1964234N13316 1964 65 NA NA CLEO 1964-09-02 09:00:00 TS 35.3273 -71.6731 main 347 347 P_____________ AL051964 35.3273 -71.6731 HU 70 984 1 11 74
1964234N13316 1964 65 NA NA CLEO 1964-09-02 12:00:00 TS 35.5000 -71.0000 75 980 hurdat_atl main 406 406 O_____________ hurdat_atl AL051964 35.5000 -71.0000 HU 75 980 1 11 76
1964234N13316 1964 65 NA NA CLEO 1964-09-02 15:00:00 TS 35.5990 -70.3442 main 468 468 P_____________ AL051964 35.5990 -70.3442 HU 75 1 12 80
1964234N13316 1964 65 NA NA CLEO 1964-09-02 18:00:00 TS 35.7000 -69.6000 75 hurdat_atl main 531 531 O_____________ hurdat_atl AL051964 35.7000 -69.6000 HU 75 1 14 80
1964234N13316 1964 65 NA NA CLEO 1964-09-02 21:00:00 TS 35.8272 -68.7018 main 611 611 P_____________ AL051964 35.8272 -68.7018 HU 75 1 16 79
1964234N13316 1964 65 NA NA CLEO 1964-09-03 00:00:00 TS 36.0000 -67.7000 75 hurdat_atl main 664 662 O_____________ hurdat_atl AL051964 36.0000 -67.7000 HU 75 1 17 76
1964234N13316 1964 65 NA NA CLEO 1964-09-03 03:00:00 TS 36.2270 -66.6647 main 675 672 P_____________ AL051964 36.2270 -66.6647 HU 75 1 18 74
1964234N13316 1964 65 NA NA CLEO 1964-09-03 06:00:00 TS 36.5000 -65.6000 75 980 hurdat_atl main 691 691 O_____________ hurdat_atl AL051964 36.5000 -65.6000 HU 75 980 1 18 72
1964234N13316 1964 65 NA NA CLEO 1964-09-03 09:00:00 TS 36.7833 -64.5787 main 715 715 P_____________ AL051964 36.7833 -64.5787 HU 77 980 1 18 70
1964234N13316 1964 65 NA NA CLEO 1964-09-03 12:00:00 TS 37.1000 -63.5000 80 980 hurdat_atl main 728 715 O_____________ hurdat_atl AL051964 37.1000 -63.5000 HU 80 980 1 19 70
1964234N13316 1964 65 NA NA CLEO 1964-09-03 15:00:00 TS 37.4225 -62.3963 main 721 713 P_____________ AL051964 37.4225 -62.3963 HU 82 977 1 21 71
1964234N13316 1964 65 NA NA CLEO 1964-09-03 18:00:00 TS 37.8000 -61.0000 85 975 hurdat_atl main 729 729 O_____________ hurdat_atl AL051964 37.8000 -61.0000 HU 85 975 2 27 76
1964234N13316 1964 65 NA NA CLEO 1964-09-03 21:00:00 TS 38.0956 -59.0430 main 798 797 P_____________ AL051964 38.0956 -59.0430 HU 85 2 33 74
1964234N13316 1964 65 NA NA CLEO 1964-09-04 00:00:00 TS 38.7000 -56.9000 85 hurdat_atl main 801 763 O_____________ hurdat_atl AL051964 38.7000 -56.9000 HU 85 2 37 61
1964234N13316 1964 65 NA NA CLEO 1964-09-04 03:00:00 TS 39.9285 -54.8383 main 751 578 P_____________ AL051964 39.9285 -54.8383 HU 85 2 41 47
1964234N13316 1964 65 NA NA CLEO 1964-09-04 06:00:00 TS 41.5000 -53.0000 85 hurdat_atl main 567 408 O_____________ hurdat_atl AL051964 41.5000 -53.0000 HU 85 2 41 38
1964234N13316 1964 65 NA NA CLEO 1964-09-04 09:00:00 TS 43.1421 -51.5119 main 411 305 P_____________ AL051964 43.1421 -51.5119 HU 85 2 37 30
1964234N13316 1964 65 NA NA CLEO 1964-09-04 12:00:00 ET 44.7000 -50.5000 85 970 hurdat_atl main 297 254 O_____________ hurdat_atl AL051964 44.7000 -50.5000 EX 85 970 -4 30 22
1964234N13316 1964 65 NA NA CLEO 1964-09-04 15:00:00 ET 45.8947 -49.9742 main 250 224 P_____________ AL051964 45.8947 -49.9742 EX 82 -4 23 13
1964234N13316 1964 65 NA NA CLEO 1964-09-04 18:00:00 ET 46.9000 -49.8000 80 hurdat_atl main 220 212 O_____________ hurdat_atl AL051964 46.9000 -49.8000 EX 80 -4 20 7
1964234N13316 1964 65 NA NA CLEO 1964-09-04 21:00:00 ET 47.8497 -49.6314 main 226 226 P_____________ AL051964 47.8497 -49.6314 EX 77 -4 19 6
1964234N13316 1964 65 NA NA CLEO 1964-09-05 00:00:00 ET 48.8000 -49.5000 75 hurdat_atl main 254 254 O_____________ hurdat_atl AL051964 48.8000 -49.5000 EX 75 -4 21 6
1964234N13316 1964 65 NA NA CLEO 1964-09-05 03:00:00 ET 49.9074 -49.2797 main 308 308 P_____________ AL051964 49.9074 -49.2797 EX 70 -4 22 8
1964234N13316 1964 65 NA NA CLEO 1964-09-05 06:00:00 ET 51.0000 -49.0000 65 hurdat_atl main 370 370 O_____________ hurdat_atl AL051964 51.0000 -49.0000 EX 65 -4 21 10
1964234N13316 1964 65 NA NA CLEO 1964-09-05 09:00:00 ET 51.9668 -48.7148 main 450 450 P_____________ AL051964 51.9668 -48.7148 EX 62 -4 18 13
1964234N13316 1964 65 NA NA CLEO 1964-09-05 12:00:00 ET 52.8000 -48.3000 60 hurdat_atl main 492 492 O_____________ hurdat_atl AL051964 52.8000 -48.3000 EX 60 -4 17 22
1964234N13316 1964 65 NA NA CLEO 1964-09-05 15:00:00 ET 53.5178 -47.6531 main 534 534 P_____________ AL051964 53.5178 -47.6531 EX 57 -4 15 33
1964234N13316 1964 65 NA NA CLEO 1964-09-05 18:00:00 ET 54.1000 -46.9000 55 hurdat_atl main 588 588 O_____________ hurdat_atl AL051964 54.1000 -46.9000 EX 55 -4 14 39
1964234N13316 1964 65 NA NA CLEO 1964-09-05 21:00:00 ET 54.6253 -46.1477 main 603 555 P_____________ AL051964 54.6253 -46.1477 EX 52 -4 12 42
1964234N13316 1964 65 NA NA CLEO 1964-09-06 00:00:00 ET 55.0000 -45.5000 50 hurdat_atl main 555 531 O_____________ hurdat_atl AL051964 55.0000 -45.5000 EX 50 -4 8 46
1964234N13316 1964 65 NA NA CLEO 1964-09-06 03:00:00 ET 55.2017 -45.1023 main 531 520 P_____________ AL051964 55.2017 -45.1023 EX 50 -4 5 53
1964234N13316 1964 65 NA NA CLEO 1964-09-06 06:00:00 ET 55.3000 -44.8000 50 hurdat_atl main 520 509 O_____________ hurdat_atl AL051964 55.3000 -44.8000 EX 50 -4 5 59
1964234N13316 1964 65 NA NA CLEO 1964-09-06 09:00:00 ET 55.4374 -44.4081 main 509 498 P_____________ AL051964 55.4374 -44.4081 EX 50 -4 5 66
1964234N13316 1964 65 NA NA CLEO 1964-09-06 12:00:00 ET 55.5000 -44.0000 50 hurdat_atl main 499 499 O_____________ hurdat_atl AL051964 55.5000 -44.0000 EX 50 -4 5 90
1964234N13316 1964 65 NA NA CLEO 1964-09-06 15:00:00 ET 55.4374 -43.5919 main 512 512 P_____________ AL051964 55.4374 -43.5919 EX 50 -4 5 114
1964234N13316 1964 65 NA NA CLEO 1964-09-06 18:00:00 ET 55.3000 -43.2000 50 hurdat_atl main 526 526 O_____________ hurdat_atl AL051964 55.3000 -43.2000 EX 50 -4 5 123
1964234N13316 1964 65 NA NA CLEO 1964-09-06 21:00:00 ET 55.1573 -42.8426 main 542 542 P_____________ AL051964 55.1573 -42.8426 EX 47 -4 5 127
1964234N13316 1964 65 NA NA CLEO 1964-09-07 00:00:00 ET 55.0000 -42.5000 45 hurdat_atl main 565 565 O_____________ hurdat_atl AL051964 55.0000 -42.5000 EX 45 -4 5 128
1964234N13316 1964 65 NA NA CLEO 1964-09-07 03:00:00 ET 54.8498 -42.1578 main 589 589 P_____________ AL051964 54.8498 -42.1578 EX 45 -4 5 127
1964234N13316 1964 65 NA NA CLEO 1964-09-07 06:00:00 ET 54.7000 -41.8000 45 hurdat_atl main 602 602 O_____________ hurdat_atl AL051964 54.7000 -41.8000 EX 45 -4 5 124
1964234N13316 1964 65 NA NA CLEO 1964-09-07 09:00:00 ET 54.5501 -41.3925 main 617 617 P_____________ AL051964 54.5501 -41.3925 EX 42 -4 6 123
1964234N13316 1964 65 NA NA CLEO 1964-09-07 12:00:00 ET 54.4000 -41.0000 40 hurdat_atl main 643 643 O_____________ hurdat_atl AL051964 54.4000 -41.0000 EX 40 -4 5 125
1964234N13316 1964 65 NA NA CLEO 1964-09-07 15:00:00 ET 54.2647 -40.6933 main 658 658 P_____________ AL051964 54.2647 -40.6933 EX 40 -4 5 131
1964234N13316 1964 65 NA NA CLEO 1964-09-07 18:00:00 ET 54.1000 -40.4000 40 hurdat_atl main 683 683 O_____________ hurdat_atl AL051964 54.1000 -40.4000 EX 40 -4 6 137
1964234N13316 1964 65 NA NA CLEO 1964-09-07 21:00:00 ET 53.8576 -40.0420 main 711 711 P_____________ AL051964 53.8576 -40.0420 EX 40 -4 6 140
1964234N13316 1964 65 NA NA CLEO 1964-09-08 00:00:00 ET 53.6000 -39.7000 40 hurdat_atl main 748 748 O_____________ hurdat_atl AL051964 53.6000 -39.7000 EX 40 -4 6 142
1964234N13316 1964 65 NA NA CLEO 1964-09-08 03:00:00 ET 53.3923 -39.4356 main 774 774 P_____________ AL051964 53.3923 -39.4356 EX 40 -4 5 143
1964234N13316 1964 65 NA NA CLEO 1964-09-08 06:00:00 ET 53.2000 -39.2000 40 hurdat_atl main 799 799 O_____________ hurdat_atl AL051964 53.2000 -39.2000 EX 40 -4 5 143
1964234N13316 1964 65 NA NA CLEO 1964-09-08 09:00:00 ET 52.9926 -38.9273 main 826 826 P_____________ AL051964 52.9926 -38.9273 EX 37 -4 5 143
1964234N13316 1964 65 NA NA CLEO 1964-09-08 12:00:00 ET 52.8000 -38.7000 35 hurdat_atl main 851 851 O_____________ hurdat_atl AL051964 52.8000 -38.7000 EX 35 -4 4 149
1964234N13316 1964 65 NA NA CLEO 1964-09-08 15:00:00 ET 52.6199 -38.5627 main 874 874 P_____________ AL051964 52.6199 -38.5627 EX 35 -4 3 159
1964234N13316 1964 65 NA NA CLEO 1964-09-08 18:00:00 ET 52.5000 -38.5000 35 hurdat_atl main 887 887 O_____________ hurdat_atl AL051964 52.5000 -38.5000 EX 35 -4 2 174
1964234N13316 1964 65 NA NA CLEO 1964-09-08 21:00:00 ET 52.4397 -38.5592 main 896 885 P_____________ AL051964 52.4397 -38.5592 EX 32 -4 0 0
1964234N13316 1964 65 NA NA CLEO 1964-09-09 00:00:00 ET 52.5000 -38.5000 30 hurdat_atl main 887 872 O_____________ hurdat_atl AL051964 52.5000 -38.5000 EX 30 -4 4 47
1964234N13316 1964 65 NA NA CLEO 1964-09-09 03:00:00 ET 52.7129 -38.0761 main 874 854 P_____________ AL051964 52.7129 -38.0761 EX 30 -4 8 50
1964234N13316 1964 65 NA NA CLEO 1964-09-09 06:00:00 ET 53.0000 -37.5000 30 hurdat_atl main 856 845 O_____________ hurdat_atl AL051964 53.0000 -37.5000 EX 30 -4 8 52
1964234N13316 1964 65 NA NA CLEO 1964-09-09 09:00:00 ET 53.2123 -36.9981 main 848 829 P_____________ AL051964 53.2123 -36.9981 EX 30 -4 8 50
1964234N13316 1964 65 NA NA CLEO 1964-09-09 12:00:00 ET 53.5000 -36.5000 30 hurdat_atl main 832 794 O_____________ hurdat_atl AL051964 53.5000 -36.5000 EX 30 -4 10 36
1964234N13316 1964 65 NA NA CLEO 1964-09-09 15:00:00 ET 53.9993 -36.0381 main 798 763 P_____________ AL051964 53.9993 -36.0381 EX 30 -4 12 30
1964234N13316 1964 65 NA NA CLEO 1964-09-09 18:00:00 ET 54.5000 -35.5000 30 hurdat_atl main 767 758 O_____________ hurdat_atl AL051964 54.5000 -35.5000 EX 30 -4 11 40
1964234N13316 1964 65 NA NA CLEO 1964-09-09 21:00:00 ET 54.8243 -34.8251 main 765 760 P_____________ AL051964 54.8243 -34.8251 EX 30 -4 10 60
1964234N13316 1964 65 NA NA CLEO 1964-09-10 00:00:00 ET 55.0000 -34.0000 30 hurdat_atl main 779 779 O_____________ hurdat_atl AL051964 55.0000 -34.0000 EX 30 -4 10 82
1964234N13316 1964 65 NA NA CLEO 1964-09-10 03:00:00 ET 54.9626 -33.0295 main 821 821 P_____________ AL051964 54.9626 -33.0295 EX 30 -4 11 90
1964234N13316 1964 65 NA NA CLEO 1964-09-10 06:00:00 ET 55.0000 -32.0000 30 hurdat_atl main 865 865 O_____________ hurdat_atl AL051964 55.0000 -32.0000 EX 30 -4 12 66
1964234N13316 1964 65 NA NA CLEO 1964-09-10 09:00:00 ET 55.4608 -31.0424 main 873 871 P_____________ AL051964 55.4608 -31.0424 EX 30 -4 15 49
1964234N13316 1964 65 NA NA CLEO 1964-09-10 12:00:00 ET 56.0000 -30.0000 30 hurdat_atl main 888 888 O_____________ hurdat_atl AL051964 56.0000 -30.0000 EX 30 -4 16 56
1964234N13316 1964 65 NA NA CLEO 1964-09-10 15:00:00 ET 56.3267 -28.7126 main 892 850 P_____________ AL051964 56.3267 -28.7126 EX 30 -4 15 70
1964234N13316 1964 65 NA NA CLEO 1964-09-10 18:00:00 ET 56.5000 -27.5000 30 hurdat_atl main 849 836 O_____________ hurdat_atl AL051964 56.5000 -27.5000 EX 30 -4 12 80
1964234N13316 1964 65 NA NA CLEO 1964-09-10 21:00:00 ET 56.5364 -26.6362 main 835 827 P_____________ AL051964 56.5364 -26.6362 EX 27 -4 8 90
1964234N13316 1964 65 NA NA CLEO 1964-09-11 00:00:00 ET 56.5000 -26.0000 25 hurdat_atl main 827 O_____________ hurdat_atl AL051964 56.5000 -26.0000 EX 25 -4 7 96

About IBTrACS Database

This database is a web-friendly format of International Best Track Archive for Climate Stewardship (IBTrACS), a global best track data archive curated by NOAA dating back to 1842.

Updated: 2021-10-08